Hendron, Kentucky
Current Conditions -  °F | °C
As of 5:53 PM on Sunday 21 Dec 2014 (Local Time) from KPAH Reporting Station
Clear Clear  
Wind Chill: 33°   Ceiling: Unl
Heat Index: 38°   Visibility: 10mi
Dew Point: 30°   Wind: 6mph
Humidity: 73%   Direction: 90°E
Pressure: 30.04"   Gusts: NA
Location:  37.0331°N, 88.716°W
Report Text: KPAH 212353Z 09005KT 10SM CLR 03/M01 A3004 RMK AO2 SLP176 T00331011 10100 20028 58007
Loading
Personal Weather Stations






























Interactive Weather Map New forecast layout! Learn more

10-Day Weather Forecast

Advertisements
Track Severe Weather on mobile